Time;durP1;ratioP1;P1;durP2;ratioP2;P2;SDS_P1;SDS_P2;PMS_P1;PMS_P2;Temp;Humidity;BMP_temperature;BMP_pressure;BME280_temperature;BME280_humidity;BME280_pressure;Samples;Min_cycle;Max_cycle;Signal;HPM_P1;HPM_P2
2021/12/10 00:00:15;;;;;;;0.20;0.20;;;;;;;19.49;40.91;99498.97;5110418;28;20047;-41
2021/12/10 00:02:46;;;;;;;0.20;0.20;;;;;;;19.49;40.96;99498.16;5128249;28;20053;-42
2021/12/10 00:05:14;;;;;;;0.20;0.20;;;;;;;19.48;41.08;99480.78;5126580;28;20046;-38
2021/12/10 00:07:41;;;;;;;0.20;0.20;;;;;;;19.49;40.83;99484.34;5111242;28;20039;-38
2021/12/10 00:10:11;;;;;;;0.20;0.20;;;;;;;19.48;40.86;99479.97;5127191;28;20272;-40
2021/12/10 00:12:45;;;;;;;0.20;0.20;;;;;;;19.48;41.00;99477.19;5128006;28;20047;-39
2021/12/10 00:15:11;;;;;;;0.20;0.20;;;;;;;19.47;40.84;99473.63;5128221;28;20035;-39
2021/12/10 00:17:37;;;;;;;0.20;0.20;;;;;;;19.46;40.97;99463.69;5130043;28;20541;-39
2021/12/10 00:20:06;;;;;;;0.20;0.20;;;;;;;19.47;41.01;99454.31;5109564;28;20050;-39
2021/12/10 00:22:38;;;;;;;0.20;0.20;;;;;;;19.48;40.91;99449.59;5110200;28;20496;-39
2021/12/10 00:25:08;;;;;;;0.20;0.20;;;;;;;19.46;40.99;99452.66;5109774;28;20039;-39
2021/12/10 00:27:34;;;;;;;0.20;0.20;;;;;;;19.46;41.12;99438.03;5111577;28;20045;-38
2021/12/10 00:30:08;;;;;;;0.20;0.20;;;;;;;19.45;41.17;99430.88;5128037;28;20039;-38
2021/12/10 00:32:39;;;;;;;0.20;0.20;;;;;;;19.44;40.88;99429.28;5129351;28;20103;-38
2021/12/10 00:35:15;;;;;;;0.20;0.20;;;;;;;19.43;41.28;99425.69;5107369;28;20092;-37
2021/12/10 00:37:40;;;;;;;0.20;0.20;;;;;;;19.44;41.07;99421.78;5110992;28;20047;-37
2021/12/10 00:40:09;;;;;;;0.20;0.20;;;;;;;19.44;41.07;99429.28;5108712;28;20509;-37
2021/12/10 00:42:35;;;;;;;0.20;0.20;;;;;;;19.44;40.87;99412.72;5110147;28;20043;-39
2021/12/10 00:45:05;;;;;;;0.20;0.20;;;;;;;19.44;40.97;99407.19;5125983;27;20328;-38
2021/12/10 00:47:31;;;;;;;0.20;0.20;;;;;;;19.45;41.26;99408.81;5110234;28;20043;-38
2021/12/10 00:49:56;;;;;;;0.20;0.20;;;;;;;19.42;40.89;99404.72;5105418;28;20050;-38
2021/12/10 00:52:22;;;;;;;0.20;0.20;;;;;;;19.42;41.24;99396.44;5128530;28;20270;-38
2021/12/10 00:54:49;;;;;;;0.20;0.20;;;;;;;19.42;40.94;99403.91;5125553;28;20478;-38
2021/12/10 00:57:15;;;;;;;0.20;0.20;;;;;;;19.42;41.00;99395.63;5129328;28;20103;-39
2021/12/10 00:59:44;;;;;;;0.20;0.20;;;;;;;19.41;41.06;99394.81;5128566;28;20057;-39
2021/12/10 01:02:13;;;;;;;0.20;0.20;;;;;;;19.41;41.16;99400.34;5128521;28;20046;-38
2021/12/10 01:04:42;;;;;;;0.20;0.20;;;;;;;19.43;40.88;99402.78;5125992;28;20496;-39
2021/12/10 01:07:12;;;;;;;0.20;0.20;;;;;;;19.42;40.98;99401.97;5127778;28;20054;-39
2021/12/10 01:09:41;;;;;;;0.20;0.20;;;;;;;19.41;41.22;99397.56;5092767;28;20035;-40
2021/12/10 01:12:11;;;;;;;0.20;0.20;;;;;;;19.40;40.81;99390.44;5128361;28;20366;-40
2021/12/10 01:23:48;;;;;;;0.10;0.10;;;;;;;19.39;41.15;99377.78;5084440;28;20039;-42
2021/12/10 01:26:09;;;;;;;0.20;0.20;;;;;;;19.38;40.98;99364.28;5110943;28;20047;-39
2021/12/10 01:28:40;;;;;;;0.20;0.20;;;;;;;19.38;41.01;99359.56;5112175;28;20039;-38
2021/12/10 01:31:06;;;;;;;0.20;0.20;;;;;;;19.38;41.11;99353.22;5127411;28;20418;-42
2021/12/10 01:33:32;;;;;;;0.20;0.20;;;;;;;19.38;41.13;99339.44;5106928;28;20042;-39
2021/12/10 01:35:59;;;;;;;0.20;0.20;;;;;;;19.38;41.24;99333.91;5128377;28;20058;-39
2021/12/10 01:38:26;;;;;;;0.20;0.20;;;;;;;19.38;41.00;99320.09;5128409;28;20079;-39
2021/12/10 01:40:56;;;;;;;0.20;0.20;;;;;;;19.37;41.23;99313.78;5109721;28;20392;-39
2021/12/10 01:43:23;;;;;;;0.20;0.20;;;;;;;19.37;41.17;99318.50;5125239;28;20043;-43
2021/12/10 01:45:56;;;;;;;0.20;0.20;;;;;;;19.36;41.00;99316.88;5094046;28;20035;-39
2021/12/10 01:48:27;;;;;;;0.20;0.20;;;;;;;19.36;41.26;99316.88;5107857;28;20057;-39
2021/12/10 01:50:54;;;;;;;0.20;0.20;;;;;;;19.36;41.02;99312.16;5127763;28;20047;-39
2021/12/10 01:53:26;;;;;;;0.20;0.20;;;;;;;19.35;41.26;99318.81;5125520;28;20485;-42
2021/12/10 01:55:55;;;;;;;0.20;0.20;;;;;;;19.35;41.21;99313.28;5129074;28;20039;-39
2021/12/10 01:58:23;;;;;;;0.20;0.20;;;;;;;19.37;41.25;99304.69;5108692;28;20039;-39
2021/12/10 02:00:54;;;;;;;0.17;0.17;;;;;;;19.36;40.99;99303.06;5128136;28;20454;-40
2021/12/10 02:03:20;;;;;;;0.20;0.20;;;;;;;19.35;41.10;99291.22;5126584;28;20053;-42
2021/12/10 02:05:46;;;;;;;0.20;0.20;;;;;;;19.36;40.95;99279.03;5108498;28;20043;-38
2021/12/10 02:08:12;;;;;;;0.20;0.20;;;;;;;19.35;40.99;99274.66;5090267;28;20051;-39
2021/12/10 02:10:37;;;;;;;0.20;0.20;;;;;;;19.34;41.10;99270.25;5125831;28;20047;-42
2021/12/10 02:13:04;;;;;;;0.20;0.20;;;;;;;19.34;41.01;99270.25;5127323;28;20063;-38
2021/12/10 02:15:29;;;;;;;0.20;0.20;;;;;;;19.34;41.25;99261.16;5106315;28;20545;-41
2021/12/10 02:17:57;;;;;;;0.20;0.20;;;;;;;19.33;41.05;99263.09;5127768;28;20039;-39
2021/12/10 02:20:34;;;;;;;0.20;0.20;;;;;;;19.34;41.21;99253.69;5126646;28;20099;-39
2021/12/10 02:23:04;;;;;;;0.20;0.20;;;;;;;19.33;41.12;99249.31;5127547;28;20103;-41
2021/12/10 02:25:31;;;;;;;0.20;0.20;;;;;;;19.33;41.07;99231.94;5124377;28;20047;-38
2021/12/10 02:27:58;;;;;;;0.20;0.20;;;;;;;19.33;41.00;99226.41;5126742;28;20048;-39
2021/12/10 02:30:27;;;;;;;0.10;0.10;;;;;;;19.34;41.18;99208.72;5126083;28;20051;-39
2021/12/10 02:32:53;;;;;;;0.20;0.20;;;;;;;19.33;41.05;99205.13;5126381;28;20039;-39
2021/12/10 02:35:19;;;;;;;0.20;0.20;;;;;;;19.33;41.06;99212.59;5125521;28;20053;-40
2021/12/10 02:37:46;;;;;;;0.20;0.20;;;;;;;19.33;41.13;99209.84;5127068;28;20043;-39
2021/12/10 02:40:14;;;;;;;0.20;0.20;;;;;;;19.32;41.19;99200.75;5127020;28;20060;-40
2021/12/10 02:42:40;;;;;;;0.20;0.20;;;;;;;19.31;41.00;99188.09;5107878;28;20043;-41
2021/12/10 02:45:08;;;;;;;0.20;0.20;;;;;;;19.30;41.32;99184.53;5106003;27;20040;-39
2021/12/10 02:47:34;;;;;;;0.20;0.20;;;;;;;19.32;41.08;99169.59;5109844;28;20409;-39
2021/12/10 02:50:00;;;;;;;0.20;0.20;;;;;;;19.31;41.32;99166.03;5126338;28;20466;-39
2021/12/10 02:52:27;;;;;;;0.20;0.20;;;;;;;19.32;41.13;99158.56;5126987;28;20049;-38
2021/12/10 02:54:53;;;;;;;0.20;0.20;;;;;;;19.30;41.22;99159.69;5124572;28;20051;-39
2021/12/10 02:57:20;;;;;;;0.20;0.20;;;;;;;19.31;41.22;99154.97;5108418;28;20441;-39
2021/12/10 02:59:45;;;;;;;0.20;0.20;;;;;;;19.30;41.14;99139.56;5126614;28;20043;-39
2021/12/10 03:02:17;;;;;;;0.20;0.20;;;;;;;19.30;41.33;99137.63;5125774;28;20045;-40
2021/12/10 03:04:43;;;;;;;0.20;0.20;;;;;;;19.30;41.28;99131.28;5124221;28;20100;-39
2021/12/10 03:07:16;;;;;;;0.20;0.20;;;;;;;19.30;41.20;99137.63;5091586;28;20148;-43
2021/12/10 03:09:45;;;;;;;0.20;0.20;;;;;;;19.30;41.10;99140.38;5089604;28;20044;-39
2021/12/10 03:12:13;;;;;;;0.20;0.20;;;;;;;19.30;41.32;99129.34;5129763;28;20092;-38
2021/12/10 03:14:42;;;;;;;0.20;0.20;;;;;;;19.28;41.07;99131.59;5109629;28;20084;-39
2021/12/10 03:17:11;;;;;;;0.20;0.20;;;;;;;19.29;41.09;99126.88;5111362;28;20046;-39
2021/12/10 03:19:37;;;;;;;0.20;0.20;;;;;;;19.29;41.06;99121.34;5093578;28;20389;-39
2021/12/10 03:22:06;;;;;;;0.20;0.20;;;;;;;19.29;41.16;99115.84;5130539;28;20042;-38
2021/12/10 03:24:31;;;;;;;;;;;;;;;19.27;41.27;99113.41;5110000;28;20408;-40
2021/12/10 03:27:00;;;;;;;0.20;0.20;;;;;;;19.28;41.42;99109.50;5130081;28;20365;-40
2021/12/10 03:29:27;;;;;;;0.20;0.20;;;;;;;19.27;41.14;99096.84;5111139;28;20047;-39
2021/12/10 03:31:54;;;;;;;0.20;0.20;;;;;;;19.28;41.24;99090.19;5128850;28;20047;-38
2021/12/10 03:34:21;;;;;;;0.20;0.20;;;;;;;19.27;41.41;99091.34;5108651;28;20041;-38
2021/12/10 03:36:49;;;;;;;0.20;0.20;;;;;;;19.27;41.26;99088.56;5129075;28;20047;-39
2021/12/10 03:39:18;;;;;;;0.20;0.20;;;;;;;19.28;41.16;99086.63;5129606;28;20047;-38
2021/12/10 03:41:45;;;;;;;0.20;0.20;;;;;;;19.27;41.38;99080.28;5130199;28;20049;-38
2021/12/10 03:44:11;;;;;;;0.20;0.20;;;;;;;19.27;41.25;99079.50;5108444;28;20039;-38
2021/12/10 03:46:37;;;;;;;0.20;0.20;;;;;;;19.27;41.17;99068.44;5130027;27;20396;-37
2021/12/10 03:49:05;;;;;;;0.20;0.20;;;;;;;19.26;41.37;99064.88;5129854;28;20040;-39
2021/12/10 03:51:31;;;;;;;0.20;0.20;;;;;;;19.27;41.20;99060.97;5130402;28;20039;-39
2021/12/10 03:53:58;;;;;;;0.20;0.20;;;;;;;19.25;41.19;99063.25;5127798;28;20047;-39
2021/12/10 03:56:26;;;;;;;0.20;0.20;;;;;;;19.25;41.16;99068.75;5130008;28;20133;-37
2021/12/10 03:58:54;;;;;;;0.20;0.20;;;;;;;19.25;41.31;99071.50;5129208;28;20039;-40
2021/12/10 04:01:25;;;;;;;0.20;0.20;;;;;;;19.25;41.15;99065.19;5129952;28;20529;-38
2021/12/10 04:03:52;;;;;;;0.20;0.20;;;;;;;19.25;41.31;99059.66;5108127;28;20046;-38
2021/12/10 04:06:18;;;;;;;0.20;0.20;;;;;;;19.24;41.33;99050.59;5129619;28;20776;-37
2021/12/10 04:08:44;;;;;;;0.20;0.20;;;;;;;19.25;41.19;99048.63;5092304;28;20541;-38
2021/12/10 04:11:10;;;;;;;0.20;0.20;;;;;;;19.25;41.19;99051.38;5111828;28;20039;-39
2021/12/10 04:13:36;;;;;;;0.20;0.20;;;;;;;19.25;41.14;99051.38;5091192;28;20122;-38
2021/12/10 04:16:03;;;;;;;0.20;0.20;;;;;;;19.26;41.15;99050.28;5128781;28;20047;-38
2021/12/10 04:18:30;;;;;;;0.20;0.20;;;;;;;19.24;41.20;99042.31;5127592;28;20578;-37
2021/12/10 04:20:56;;;;;;;0.20;0.20;;;;;;;19.25;41.25;99026.56;5128531;27;20051;-37
2021/12/10 04:23:22;;;;;;;0.20;0.20;;;;;;;19.24;41.09;99020.22;5110291;28;20066;-40
2021/12/10 04:25:47;;;;;;;0.20;0.20;;;;;;;19.24;41.16;99020.22;5128831;28;20110;-39
2021/12/10 04:28:16;;;;;;;0.20;0.20;;;;;;;19.23;41.46;99007.56;5129363;28;20084;-40
2021/12/10 04:30:45;;;;;;;0.20;0.20;;;;;;;19.25;41.51;98996.19;5128107;28;20043;-37
2021/12/10 04:33:14;;;;;;;0.20;0.20;;;;;;;19.23;41.33;98999.28;5127649;28;20438;-38
2021/12/10 04:35:40;;;;;;;0.20;0.20;;;;;;;19.23;41.35;98995.72;5126788;28;20063;-40
2021/12/10 04:38:06;;;;;;;0.20;0.20;;;;;;;19.23;41.33;98992.97;5110855;28;20035;-37
2021/12/10 04:40:31;;;;;;;0.20;0.20;;;;;;;19.22;41.42;98994.91;5128161;28;20046;-38
2021/12/10 04:42:58;;;;;;;0.20;0.20;;;;;;;19.22;41.47;98997.69;5129231;28;20137;-38
2021/12/10 04:45:24;;;;;;;0.20;0.20;;;;;;;19.23;41.35;98995.72;5126846;27;20075;-38
2021/12/10 04:47:50;;;;;;;0.20;0.20;;;;;;;19.23;41.11;98993.78;5128022;28;20047;-38
2021/12/10 04:50:19;;;;;;;0.20;0.20;;;;;;;19.21;41.23;98987.78;5128136;28;20504;-38
2021/12/10 04:52:46;;;;;;;0.20;0.20;;;;;;;19.21;41.28;98982.28;5109654;28;20099;-37
2021/12/10 04:55:14;;;;;;;0.20;0.20;;;;;;;19.20;41.48;98977.88;5106204;28;20049;-37
2021/12/10 04:57:41;;;;;;;0.20;0.20;;;;;;;19.20;41.36;98966.03;5128899;28;20055;-37
2021/12/10 05:00:15;;;;;;;0.20;0.20;;;;;;;19.21;41.31;98962.13;5128948;28;20081;-38
2021/12/10 05:02:41;;;;;;;0.20;0.20;;;;;;;19.20;41.30;98964.06;5127322;28;20379;-37
2021/12/10 05:05:08;;;;;;;0.20;0.20;;;;;;;19.22;41.17;98959.03;5127146;28;20503;-38
2021/12/10 05:07:36;;;;;;;0.20;0.20;;;;;;;19.21;41.36;98951.06;5108944;28;20046;-36
2021/12/10 05:10:04;;;;;;;;;;;;;;;19.21;41.30;98956.59;5110755;28;20095;-38
2021/12/10 05:12:29;;;;;;;0.20;0.20;;;;;;;19.21;41.31;98951.06;5128474;28;19923;-38
2021/12/10 05:14:59;;;;;;;0.20;0.20;;;;;;;19.21;41.48;98934.53;5124996;28;20302;-37
2021/12/10 05:17:28;;;;;;;0.20;0.20;;;;;;;19.21;41.37;98940.03;5128003;28;20135;-38
2021/12/10 05:19:55;;;;;;;0.20;0.20;;;;;;;19.20;41.52;98936.47;5109128;28;20450;-37
2021/12/10 05:22:20;;;;;;;0.20;0.20;;;;;;;19.20;41.14;98925.44;5109097;28;20423;-37
2021/12/10 05:24:46;;;;;;;0.20;0.20;;;;;;;19.19;41.34;98923.81;5125566;28;20146;-38
2021/12/10 05:27:12;;;;;;;0.20;0.20;;;;;;;19.20;41.24;98930.16;5092534;28;20099;-38
2021/12/10 05:29:38;;;;;;;0.20;0.20;;;;;;;19.20;41.21;98919.09;5127735;28;20120;-39
2021/12/10 05:32:05;;;;;;;0.20;0.20;;;;;;;19.20;41.22;98908.06;5091134;28;20475;-39
2021/12/10 05:34:31;;;;;;;0.20;0.20;;;;;;;19.20;41.49;98916.34;5126695;28;20035;-39
2021/12/10 05:36:58;;;;;;;0.20;0.20;;;;;;;19.19;41.22;98912.78;5108800;28;20046;-39
2021/12/10 05:39:24;;;;;;;0.20;0.20;;;;;;;19.19;41.25;98906.47;5110273;28;20039;-38
2021/12/10 05:41:51;;;;;;;0.20;0.20;;;;;;;19.19;41.28;98907.25;5091724;28;20049;-39
2021/12/10 05:44:17;;;;;;;0.20;0.20;;;;;;;19.19;41.39;98895.41;5124499;28;20423;-38
2021/12/10 05:46:43;;;;;;;0.20;0.20;;;;;;;19.19;41.36;98892.66;5125744;27;20462;-39
2021/12/10 05:49:08;;;;;;;0.20;0.20;;;;;;;19.19;41.31;98876.91;5125675;28;20150;-39
2021/12/10 05:51:35;;;;;;;0.25;0.25;;;;;;;19.18;41.51;98880.81;5125037;27;20061;-37
2021/12/10 05:54:01;;;;;;;0.20;0.20;;;;;;;19.19;41.24;98873.34;5124084;28;20053;-38
2021/12/10 05:56:27;;;;;;;0.20;0.20;;;;;;;19.17;41.24;98870.09;5107387;28;20051;-40
2021/12/10 05:58:52;;;;;;;0.20;0.20;;;;;;;19.18;41.29;98864.25;5107724;28;20563;-39
2021/12/10 06:01:19;;;;;;;0.30;0.30;;;;;;;19.22;41.30;98859.69;5125445;28;20050;-37
2021/12/10 06:03:52;;;;;;;0.20;0.20;;;;;;;19.28;41.46;98860.31;5124389;28;20123;-39
2021/12/10 06:06:22;;;;;;;0.20;0.20;;;;;;;19.29;41.53;98857.22;5109759;28;20047;-39
2021/12/10 06:08:48;;;;;;;0.20;0.20;;;;;;;19.25;41.26;98864.53;5105605;28;20053;-43
2021/12/10 06:11:14;;;;;;;0.20;0.20;;;;;;;19.25;41.40;98860.97;5107317;28;20138;-40
2021/12/10 06:13:40;;;;;;;0.20;0.20;;;;;;;19.23;41.53;98866.03;5124520;28;20474;-40
2021/12/10 06:16:07;;;;;;;0.20;0.20;;;;;;;19.25;41.33;98858.22;5109766;28;20083;-39
2021/12/10 06:18:33;;;;;;;0.20;0.20;;;;;;;19.24;41.57;98851.88;5126124;27;20097;-40
2021/12/10 06:20:59;;;;;;;0.20;0.20;;;;;;;19.24;41.57;98849.13;5111731;28;20059;-39
2021/12/10 06:23:24;;;;;;;0.20;0.20;;;;;;;19.25;41.23;98853.50;5104723;28;20043;-40
2021/12/10 06:25:50;;;;;;;0.20;0.20;;;;;;;19.26;41.39;98846.06;5127966;27;20051;-42
2021/12/10 06:28:17;;;;;;;0.20;0.20;;;;;;;19.25;41.51;98842.47;5122383;28;20059;-40
2021/12/10 06:30:44;;;;;;;0.20;0.20;;;;;;;19.29;41.63;98837.91;5105642;28;20050;-44
2021/12/10 06:33:14;;;;;;;0.20;0.20;;;;;;;19.58;42.59;98832.72;5105781;28;20061;-45
2021/12/10 06:35:41;;;;;;;0.20;0.20;;;;;;;19.67;42.46;98830.75;5104809;28;20397;-40
2021/12/10 06:38:08;;;;;;;0.20;0.20;;;;;;;19.66;41.90;98834.66;5105769;28;20499;-40
2021/12/10 06:40:35;;;;;;;0.20;0.20;;;;;;;19.63;42.00;98832.56;5106152;28;20099;-39
2021/12/10 06:43:01;;;;;;;0.20;0.20;;;;;;;19.59;41.83;98831.59;5106395;27;20054;-41
2021/12/10 06:45:28;;;;;;;0.20;0.20;;;;;;;19.57;41.81;98829.16;5125687;27;20042;-40
2021/12/10 06:47:58;;;;;;;0.20;0.20;;;;;;;19.56;41.83;98827.56;5127514;28;20462;-40
2021/12/10 06:50:27;;;;;;;0.20;0.20;;;;;;;19.56;41.91;98822.03;5105303;28;20039;-38
2021/12/10 06:52:58;;;;;;;0.20;0.20;;;;;;;19.55;41.91;98821.19;5107610;28;20047;-39
2021/12/10 06:55:26;;;;;;;0.20;0.20;;;;;;;19.56;41.66;98822.03;5102544;28;20297;-37
2021/12/10 06:57:51;;;;;;;0.20;0.20;;;;;;;19.57;41.63;98822.84;5118816;28;20047;-38
2021/12/10 07:00:21;;;;;;;0.20;0.20;;;;;;;19.62;40.63;98820.72;5102360;28;20181;-46
2021/12/10 07:02:47;;;;;;;0.20;0.20;;;;;;;19.66;41.32;98815.34;5087644;28;20501;-40
2021/12/10 07:05:13;;;;;;;0.20;0.20;;;;;;;19.70;41.10;98819.03;5120588;28;20146;-37
2021/12/10 07:07:39;;;;;;;0.20;0.20;;;;;;;19.70;40.98;98819.84;5121660;28;20047;-41
2021/12/10 07:10:08;;;;;;;0.20;0.20;;;;;;;19.69;41.07;98815.47;5122806;28;20043;-40
2021/12/10 07:12:35;;;;;;;0.20;0.20;;;;;;;19.68;41.03;98816.59;5122953;28;20490;-40
2021/12/10 07:15:02;;;;;;;0.20;0.20;;;;;;;19.68;41.07;98813.84;5105705;28;20043;-41
2021/12/10 07:17:28;;;;;;;0.20;0.20;;;;;;;19.70;41.09;98813.53;5121012;28;20181;-40
2021/12/10 07:19:54;;;;;;;0.20;0.20;;;;;;;19.70;41.08;98819.84;5122817;28;20054;-39
2021/12/10 07:22:20;;;;;;;0.20;0.20;;;;;;;19.70;41.26;98816.28;5125486;28;20042;-38
2021/12/10 07:24:46;;;;;;;0.20;0.20;;;;;;;19.71;41.33;98817.91;5125684;27;21034;-37
2021/12/10 07:27:12;;;;;;;0.20;0.20;;;;;;;19.72;41.26;98816.75;5121040;27;20142;-41
2021/12/10 07:29:39;;;;;;;0.20;0.20;;;;;;;19.72;41.10;98816.75;5098915;27;20133;-41
2021/12/10 07:32:05;;;;;;;0.20;0.20;;;;;;;19.72;41.19;98809.25;5104796;27;20409;-40
2021/12/10 07:34:30;;;;;;;0.20;0.20;;;;;;;19.72;41.08;98814.78;5105233;28;20459;-38
2021/12/10 07:36:56;;;;;;;0.20;0.20;;;;;;;19.72;40.93;98814.78;5124195;27;20532;-38
2021/12/10 07:39:22;;;;;;;0.20;0.20;;;;;;;19.75;40.88;98818.84;5106622;28;20439;-37
2021/12/10 07:41:48;;;;;;;0.20;0.20;;;;;;;19.75;40.98;98810.56;5121726;27;20051;-39
2021/12/10 07:44:13;;;;;;;0.20;0.20;;;;;;;19.75;41.15;98814.13;5124756;27;20043;-40
2021/12/10 07:46:40;;;;;;;0.20;0.20;;;;;;;19.76;41.25;98806.66;5127537;27;20135;-42
2021/12/10 07:49:13;;;;;;;0.20;0.20;;;;;;;19.75;40.83;98810.56;5122700;27;20071;-38
2021/12/10 07:51:39;;;;;;;0.20;0.20;;;;;;;19.77;41.16;98800.81;5103684;27;20051;-40
2021/12/10 07:54:05;;;;;;;0.20;0.20;;;;;;;19.75;41.09;98808.59;5114329;27;20054;-38
2021/12/10 07:56:31;;;;;;;0.20;0.20;;;;;;;19.77;40.97;98794.44;5116510;27;20055;-37
2021/12/10 07:58:58;;;;;;;0.10;0.10;;;;;;;19.77;41.16;98800.81;5110321;27;20043;-42
2021/12/10 08:01:27;;;;;;;0.20;0.20;;;;;;;19.78;40.86;98807.94;5092339;27;20043;-41
2021/12/10 08:03:55;;;;;;;0.20;0.20;;;;;;;19.79;40.83;98805.97;5092388;27;20078;-42
2021/12/10 08:06:21;;;;;;;0.20;0.20;;;;;;;19.79;40.90;98801.25;5089714;27;20304;-42
2021/12/10 08:08:48;;;;;;;0.20;0.20;;;;;;;19.79;40.79;98805.97;5110352;27;20053;-37
2021/12/10 08:11:18;;;;;;;0.20;0.20;;;;;;;19.79;40.62;98797.69;5095847;28;20130;-39
2021/12/10 08:13:43;;;;;;;0.20;0.20;;;;;;;19.79;40.92;98801.25;5114284;27;20055;-41
2021/12/10 08:16:10;;;;;;;0.20;0.20;;;;;;;19.80;40.74;98797.34;5120583;27;20108;-39
2021/12/10 08:18:35;;;;;;;0.13;0.13;;;;;;;19.79;40.81;98795.75;5078041;27;20054;-42
2021/12/10 08:21:01;;;;;;;0.20;0.20;;;;;;;19.78;40.82;98791.38;5114348;27;20047;-39
2021/12/10 08:23:28;;;;;;;0.20;0.20;;;;;;;19.79;40.66;98798.50;5099393;27;20057;-42
2021/12/10 08:25:54;;;;;;;0.20;0.20;;;;;;;19.79;40.82;98804.03;5112353;27;20655;-43
2021/12/10 08:28:22;;;;;;;0.20;0.20;;;;;;;19.78;40.79;98796.09;5112952;27;20050;-43
2021/12/10 08:30:49;;;;;;;0.20;0.20;;;;;;;19.78;40.82;98793.31;5114441;27;20043;-42
2021/12/10 08:33:15;;;;;;;0.20;0.20;;;;;;;19.77;40.96;98789.75;5127382;27;20050;-41
2021/12/10 08:35:45;;;;;;;0.20;0.20;;;;;;;19.77;40.81;98836.72;5096605;28;20039;-43
2021/12/10 08:38:11;;;;;;;0.20;0.20;;;;;;;19.65;36.13;98786.13;5083447;27;20039;-45
2021/12/10 08:40:41;;;;;;;0.20;0.20;;;;;;;19.71;38.35;98776.47;5114580;27;20582;-40
2021/12/10 08:43:07;;;;;;;0.20;0.20;;;;;;;19.78;38.67;98788.59;5099080;27;20047;-41
2021/12/10 08:45:34;;;;;;;0.20;0.20;;;;;;;19.78;38.85;98794.13;5118988;27;20047;-42
2021/12/10 08:48:00;;;;;;;0.20;0.20;;;;;;;19.79;39.53;98789.41;5096545;28;20055;-42
2021/12/10 08:50:27;;;;;;;0.20;0.20;;;;;;;19.79;39.36;98787.47;5102755;27;20050;-41
2021/12/10 08:52:58;;;;;;;0.20;0.20;;;;;;;19.81;39.30;98784.34;5096325;27;20461;-40
2021/12/10 08:55:25;;;;;;;0.20;0.20;;;;;;;19.82;39.60;98779.63;5116244;27;20051;-41
2021/12/10 08:57:51;;;;;;;0.20;0.20;;;;;;;19.81;39.59;98778.81;5093305;27;20054;-40
2021/12/10 09:00:17;;;;;;;0.13;0.13;;;;;;;19.82;39.75;98779.63;5113739;27;20043;-42
2021/12/10 09:02:43;;;;;;;0.20;0.20;;;;;;;19.82;39.84;98765.81;5096953;27;20051;-42
2021/12/10 09:05:10;;;;;;;0.20;0.20;;;;;;;19.83;40.02;98775.75;5095909;28;20050;-38
2021/12/10 09:07:38;;;;;;;0.10;0.10;;;;;;;19.82;39.69;98771.34;5111883;27;20039;-42
2021/12/10 09:10:08;;;;;;;0.20;0.20;;;;;;;19.83;39.66;98776.53;5095831;28;20035;-43
2021/12/10 09:12:34;;;;;;;0.20;0.20;;;;;;;19.84;39.63;98780.13;5111539;27;20047;-42
2021/12/10 09:15:02;;;;;;;0.20;0.20;;;;;;;19.85;39.77;98787.25;5114812;27;20043;-42
2021/12/10 09:17:30;;;;;;;0.20;0.20;;;;;;;19.85;39.89;98784.47;5094163;28;20262;-41
2021/12/10 09:19:56;;;;;;;;;;;;;;;19.85;39.73;98788.06;5101568;27;20051;-44
2021/12/10 09:22:23;;;;;;;0.10;0.10;;;;;;;19.85;39.52;98790.00;5115314;27;19938;-41
2021/12/10 09:24:49;;;;;;;0.20;0.20;;;;;;;19.85;39.78;98787.25;5118555;27;20558;-40
2021/12/10 09:27:15;;;;;;;0.20;0.20;;;;;;;19.86;39.59;98783.34;5080573;27;21280;-40
2021/12/10 09:29:44;;;;;;;0.20;0.20;;;;;;;19.87;39.76;98783.00;5122414;27;20039;-44
2021/12/10 09:32:12;;;;;;;0.20;0.20;;;;;;;19.85;39.64;98777.00;5100386;28;20051;-40
2021/12/10 09:34:38;;;;;;;0.20;0.20;;;;;;;19.87;39.70;98785.78;5120155;27;20047;-40
2021/12/10 09:37:05;;;;;;;0.20;0.20;;;;;;;19.87;40.07;98785.78;5116064;27;20178;-43
2021/12/10 09:39:32;;;;;;;0.10;0.10;;;;;;;19.87;39.58;98777.50;5113667;27;20053;-44
2021/12/10 09:41:58;;;;;;;0.20;0.20;;;;;;;19.88;39.83;98783.81;5112743;27;20054;-40
2021/12/10 09:44:25;;;;;;;0.20;0.20;;;;;;;19.88;39.76;98787.38;5111642;27;20261;-44
2021/12/10 09:46:51;;;;;;;0.20;0.20;;;;;;;19.88;40.00;98786.59;5090759;27;20047;-45
2021/12/10 09:49:18;;;;;;;0.13;0.13;;;;;;;19.88;39.64;98773.56;5087400;28;20061;-43
2021/12/10 09:51:49;;;;;;;0.20;0.20;;;;;;;19.89;39.90;98785.44;5109458;27;20508;-44
2021/12/10 09:54:19;;;;;;;0.20;0.20;;;;;;;19.87;39.88;98783.00;5091885;27;20058;-42
2021/12/10 09:56:51;;;;;;;0.20;0.20;;;;;;;19.87;40.06;98780.25;5093275;27;20522;-41
2021/12/10 09:59:18;;;;;;;0.20;0.20;;;;;;;19.86;40.07;98783.34;5112886;27;20051;-43
2021/12/10 10:01:47;;;;;;;0.20;0.20;;;;;;;19.87;40.15;98773.94;5114257;27;20043;-41
2021/12/10 10:04:17;;;;;;;0.20;0.20;;;;;;;19.86;39.91;98778.66;5099956;27;20055;-43
2021/12/10 10:06:49;;;;;;;0.20;0.20;;;;;;;19.86;40.02;98777.81;5116312;28;20072;-44
2021/12/10 10:09:17;;;;;;;0.20;0.20;;;;;;;19.85;39.91;98774.25;5113118;27;20464;-44
2021/12/10 10:11:53;;;;;;;0.20;0.20;;;;;;;19.85;39.97;98777.00;5081891;28;20043;-45
2021/12/10 10:14:19;;;;;;;0.20;0.20;;;;;;;19.84;39.99;98769.88;5091136;28;20116;-44
2021/12/10 10:16:45;;;;;;;0.20;0.20;;;;;;;19.83;39.85;98761.94;5094167;28;20437;-40
2021/12/10 10:19:13;;;;;;;;;;;;;;;19.82;39.94;98766.66;5095646;28;20039;-43
2021/12/10 10:21:43;;;;;;;0.20;0.20;;;;;;;19.82;40.25;98757.53;5115692;27;19988;-44
2021/12/10 10:24:10;;;;;;;0.20;0.20;;;;;;;19.82;40.33;98760.28;5112384;27;20645;-41
2021/12/10 10:26:41;;;;;;;0.20;0.20;;;;;;;19.80;40.14;98746.81;5094565;28;20142;-41
2021/12/10 10:29:10;;;;;;;0.20;0.20;;;;;;;19.80;40.01;98749.59;5096175;28;20051;-43
2021/12/10 10:31:39;;;;;;;0.20;0.20;;;;;;;19.80;39.97;98736.59;5099859;28;20043;-41
2021/12/10 10:34:07;;;;;;;0.20;0.20;;;;;;;19.79;40.04;98742.47;5095622;28;20050;-41
2021/12/10 10:36:34;;;;;;;0.10;0.10;;;;;;;19.79;40.21;98737.75;5113480;27;20041;-44
2021/12/10 10:39:05;;;;;;;0.20;0.20;;;;;;;19.78;39.90;98741.66;5097298;27;20047;-41
2021/12/10 10:41:33;;;;;;;0.20;0.20;;;;;;;19.79;40.20;98745.22;5104792;27;20666;-39
2021/12/10 10:44:00;;;;;;;0.20;0.20;;;;;;;19.78;39.99;98749.13;5110978;27;20055;-44
2021/12/10 10:46:26;;;;;;;0.20;0.20;;;;;;;19.77;40.05;98740.03;5081440;28;20047;-41
2021/12/10 10:48:53;;;;;;;0.20;0.20;;;;;;;19.77;40.15;98745.56;5115929;27;20381;-43
2021/12/10 10:51:29;;;;;;;0.13;0.13;;;;;;;19.76;40.02;98743.94;5115109;27;20061;-43
2021/12/10 10:53:58;;;;;;;0.20;0.20;;;;;;;19.76;39.99;98735.66;5117374;27;20107;-40
2021/12/10 10:56:31;;;;;;;0.20;0.20;;;;;;;19.76;40.21;98732.88;5104432;28;20543;-43
2021/12/10 10:59:02;;;;;;;0.20;0.20;;;;;;;19.75;40.12;98734.03;5098122;28;20051;-44
2021/12/10 11:01:39;;;;;;;0.20;0.20;;;;;;;19.75;40.11;98739.56;5104803;28;20174;-41
2021/12/10 11:04:35;;;;;;;0.20;0.20;;;;;;;19.75;40.29;98727.72;5087470;27;20047;-44
2021/12/10 11:07:24;;;;;;;0.20;0.20;;;;;;;19.74;40.24;98731.63;5101393;28;20516;-42
2021/12/10 11:09:59;;;;;;;0.20;0.20;;;;;;;19.73;40.06;98744.63;5120328;27;20045;-43
2021/12/10 11:12:31;;;;;;;0.20;0.20;;;;;;;19.73;40.19;98741.03;5104231;27;20482;-43
2021/12/10 11:14:59;;;;;;;0.20;0.20;;;;;;;19.73;40.18;98743.78;5113798;27;20500;-40
2021/12/10 11:17:30;;;;;;;0.20;0.20;;;;;;;19.72;40.37;98743.00;5118001;27;20047;-42
2021/12/10 11:20:18;;;;;;;0.20;0.20;;;;;;;19.72;40.49;98743.00;5097712;28;20208;-42
2021/12/10 11:22:49;;;;;;;0.20;0.20;;;;;;;19.72;40.36;98744.94;5116521;27;20154;-46
2021/12/10 11:25:18;;;;;;;0.20;0.20;;;;;;;19.71;40.29;98744.13;5115418;27;20043;-43
2021/12/10 11:27:45;;;;;;;0.15;0.15;;;;;;;19.70;40.49;98748.06;5089387;27;20057;-40
2021/12/10 11:30:20;;;;;;;0.20;0.20;;;;;;;19.69;40.36;98751.97;5114979;27;20497;-43
2021/12/10 11:32:50;;;;;;;0.20;0.20;;;;;;;19.69;40.29;98742.84;5115761;27;20069;-43
2021/12/10 11:35:27;;;;;;;0.20;0.20;;;;;;;19.69;40.46;98743.69;5084557;27;20501;-42
2021/12/10 11:37:59;;;;;;;0.20;0.20;;;;;;;19.68;40.25;98744.81;5118718;27;20273;-41
2021/12/10 11:41:01;;;;;;;0.20;0.20;;;;;;;19.69;40.41;98742.84;5118464;27;20130;-43
2021/12/10 11:43:44;;;;;;;0.20;0.20;;;;;;;19.69;40.27;98748.38;5080418;27;20047;-41
2021/12/10 11:48:51;;;;;;;0.20;0.20;;;;;;;19.67;40.55;98757.00;5109816;27;20082;-42